Terminal Aerodrome Forecast
Issued by NWS Wilmington, OH

Current Version | Previous Version | Graphics & Text | Print | Product List | Glossary On
Versions: 1 2 3 4 5 6 7 8 9 10 11 12 13 14 15 16 17 18 19 20 21 22 23 24 25 26
000
FTUS41 KILN 191131
TAFCVG
TAF
KCVG 191131Z 1912/2018 30011G23KT P6SM OVC025
      TEMPO 1912/1914 5SM -SHSN OVC015
     FM191500 34015G25KT P6SM BKN025
     FM191800 33015G25KT P6SM BKN035
     FM192000 32013G20KT P6SM SCT250
     FM200000 34007KT P6SM SKC
     FM200800 01006KT P6SM SKC=

USA.gov is the U.S. government's official web portal to all federal, state and local government web resources and services.